sensor_id;sensor_type;location;lat;lon;timestamp;pressure;altitude;pressure_sealevel;temperature;humidity
8585;BME280;7180;52.742;11.420;2023-07-29T02:44:14;100093.53;;;16.54;100.00
8585;BME280;7180;52.742;11.420;2023-07-29T02:46:39;100099.66;;;16.45;100.00
8585;BME280;7180;52.742;11.420;2023-07-29T02:49:05;100089.47;;;16.41;100.00
8585;BME280;7180;52.742;11.420;2023-07-29T02:51:30;100084.41;;;16.38;100.00
8585;BME280;7180;52.742;11.420;2023-07-29T02:53:56;100080.25;;;16.35;100.00
8585;BME280;7180;52.742;11.420;2023-07-29T02:56:22;100071.72;;;16.41;100.00
8585;BME280;7180;52.742;11.420;2023-07-29T02:58:47;100072.72;;;16.50;100.00
8585;BME280;7180;52.742;11.420;2023-07-29T03:01:12;100082.78;;;16.56;100.00
8585;BME280;7180;52.742;11.420;2023-07-29T04:57:22;100065.81;;;18.85;100.00
8585;BME280;7180;52.742;11.420;2023-07-29T04:59:47;100075.63;;;19.02;100.00
8585;BME280;7180;52.742;11.420;2023-07-29T05:02:13;100070.53;;;19.34;100.00
8585;BME280;7180;52.742;11.420;2023-07-29T05:04:38;100078.84;;;20.07;100.00
8585;BME280;7180;52.742;11.420;2023-07-29T05:07:03;100072.63;;;20.40;100.00
8585;BME280;7180;52.742;11.420;2023-07-29T05:09:29;100061.44;;;20.44;100.00
8585;BME280;7180;52.742;11.420;2023-07-29T05:11:54;100065.69;;;20.05;100.00
8585;BME280;7180;52.742;11.420;2023-07-29T05:14:19;100063.59;;;19.83;100.00
8585;BME280;7180;52.742;11.420;2023-07-29T05:16:45;100065.56;;;19.73;100.00
8585;BME280;7180;52.742;11.420;2023-07-29T05:19:10;100080.00;;;19.62;100.00
8585;BME280;7180;52.742;11.420;2023-07-29T05:21:37;100079.63;;;19.49;100.00
8585;BME280;7180;52.742;11.420;2023-07-29T05:24:02;100086.47;;;19.86;100.00
8585;BME280;7180;52.742;11.420;2023-07-29T05:26:27;100078.59;;;20.18;100.00
8585;BME280;7180;52.742;11.420;2023-07-29T05:28:53;100070.63;;;20.98;100.00
8585;BME280;7180;52.742;11.420;2023-07-29T05:31:22;100065.09;;;22.56;100.00
8585;BME280;7180;52.742;11.420;2023-07-29T05:33:53;99987.16;;;23.46;100.00
8585;BME280;7180;52.742;11.420;2023-07-29T05:36:18;99909.53;;;24.23;100.00
8585;BME280;7180;52.742;11.420;2023-07-29T05:38:44;99751.38;;;23.86;92.06
8585;BME280;7180;52.742;11.420;2023-07-29T05:41:09;99867.38;;;21.92;95.23
8585;BME280;7180;52.742;11.420;2023-07-29T05:43:34;100006.31;;;21.32;100.00
8585;BME280;7180;52.742;11.420;2023-07-29T05:46:03;100059.44;;;20.95;100.00
8585;BME280;7180;52.742;11.420;2023-07-29T05:48:30;100067.63;;;20.69;100.00
8585;BME280;7180;52.742;11.420;2023-07-29T05:50:59;100080.00;;;20.62;100.00
8585;BME280;7180;52.742;11.420;2023-07-29T05:53:24;100090.03;;;20.84;100.00
8585;BME280;7180;52.742;11.420;2023-07-29T05:56:27;100070.31;;;20.85;100.00
8585;BME280;7180;52.742;11.420;2023-07-29T06:02:00;100052.28;;;20.87;100.00
8585;BME280;7180;52.742;11.420;2023-07-29T06:04:25;100068.66;;;20.68;100.00
8585;BME280;7180;52.742;11.420;2023-07-29T06:06:50;100069.50;;;20.52;100.00
8585;BME280;7180;52.742;11.420;2023-07-29T06:09:16;100089.97;;;20.36;100.00
8585;BME280;7180;52.742;11.420;2023-07-29T06:11:41;100099.44;;;20.22;100.00
8585;BME280;7180;52.742;11.420;2023-07-29T06:14:07;100117.53;;;20.03;100.00
8585;BME280;7180;52.742;11.420;2023-07-29T06:16:32;100119.69;;;19.99;100.00
8585;BME280;7180;52.742;11.420;2023-07-29T06:18:57;100116.09;;;20.16;100.00
8585;BME280;7180;52.742;11.420;2023-07-29T06:28:01;100126.25;;;20.13;100.00
8585;BME280;7180;52.742;11.420;2023-07-29T06:30:26;100132.84;;;19.93;100.00
8585;BME280;7180;52.742;11.420;2023-07-29T06:32:52;100136.47;;;19.84;100.00
8585;BME280;7180;52.742;11.420;2023-07-29T06:35:17;100143.63;;;19.83;100.00
8585;BME280;7180;52.742;11.420;2023-07-29T06:37:42;100137.69;;;19.97;100.00
8585;BME280;7180;52.742;11.420;2023-07-29T06:40:08;100122.34;;;19.99;100.00
8585;BME280;7180;52.742;11.420;2023-07-29T06:42:33;100132.56;;;20.12;100.00
8585;BME280;7180;52.742;11.420;2023-07-29T06:44:59;100127.31;;;20.28;100.00
8585;BME280;7180;52.742;11.420;2023-07-29T06:47:24;100125.41;;;20.54;100.00
8585;BME280;7180;52.742;11.420;2023-07-29T06:49:50;100108.06;;;20.74;100.00
8585;BME280;7180;52.742;11.420;2023-07-29T06:52:36;100115.44;;;21.12;100.00
8585;BME280;7180;52.742;11.420;2023-07-29T06:55:21;100088.69;;;21.20;100.00
8585;BME280;7180;52.742;11.420;2023-07-29T06:57:46;100066.28;;;21.21;100.00
8585;BME280;7180;52.742;11.420;2023-07-29T07:00:12;100063.25;;;21.32;100.00
8585;BME280;7180;52.742;11.420;2023-07-29T07:02:37;100048.53;;;21.44;100.00
8585;BME280;7180;52.742;11.420;2023-07-29T07:05:03;100047.44;;;21.70;100.00
8585;BME280;7180;52.742;11.420;2023-07-29T07:07:33;100027.22;;;21.67;100.00
8585;BME280;7180;52.742;11.420;2023-07-29T07:09:59;100038.34;;;21.87;100.00
8585;BME280;7180;52.742;11.420;2023-07-29T07:12:24;100031.66;;;21.91;100.00
8585;BME280;7180;52.742;11.420;2023-07-29T07:14:52;100028.09;;;21.98;100.00
8585;BME280;7180;52.742;11.420;2023-07-29T07:17:19;100033.00;;;21.87;100.00
8585;BME280;7180;52.742;11.420;2023-07-29T07:19:45;100021.03;;;21.66;100.00
8585;BME280;7180;52.742;11.420;2023-07-29T07:22:11;100066.44;;;21.36;100.00
8585;BME280;7180;52.742;11.420;2023-07-29T07:24:36;100083.03;;;21.15;100.00
8585;BME280;7180;52.742;11.420;2023-07-29T07:27:02;100098.41;;;21.13;100.00
8585;BME280;7180;52.742;11.420;2023-07-29T07:29:28;100103.06;;;20.95;100.00
8585;BME280;7180;52.742;11.420;2023-07-29T07:31:54;100118.41;;;20.85;100.00
8585;BME280;7180;52.742;11.420;2023-07-29T07:34:19;100131.13;;;20.83;100.00
8585;BME280;7180;52.742;11.420;2023-07-29T07:36:46;100121.22;;;20.67;100.00
8585;BME280;7180;52.742;11.420;2023-07-29T07:39:12;100141.44;;;20.54;100.00
8585;BME280;7180;52.742;11.420;2023-07-29T07:41:48;100155.94;;;20.43;100.00
8585;BME280;7180;52.742;11.420;2023-07-29T07:47:46;100162.75;;;20.38;100.00
8585;BME280;7180;52.742;11.420;2023-07-29T07:50:33;100171.06;;;20.27;100.00
8585;BME280;7180;52.742;11.420;2023-07-29T08:09:36;100181.50;;;19.61;100.00
8585;BME280;7180;52.742;11.420;2023-07-29T08:14:38;100164.31;;;19.55;100.00
8585;BME280;7180;52.742;11.420;2023-07-29T08:17:04;100172.13;;;19.57;100.00
8585;BME280;7180;52.742;11.420;2023-07-29T08:19:29;100154.97;;;19.51;100.00
8585;BME280;7180;52.742;11.420;2023-07-29T08:21:55;100158.97;;;19.55;100.00
8585;BME280;7180;52.742;11.420;2023-07-29T08:24:20;100144.75;;;19.47;100.00
8585;BME280;7180;52.742;11.420;2023-07-29T08:26:46;100149.56;;;19.43;100.00
8585;BME280;7180;52.742;11.420;2023-07-29T08:29:11;100157.41;;;19.45;100.00
8585;BME280;7180;52.742;11.420;2023-07-29T08:31:41;100158.56;;;19.42;100.00
8585;BME280;7180;52.742;11.420;2023-07-29T08:34:08;100141.50;;;19.35;100.00
8585;BME280;7180;52.742;11.420;2023-07-29T08:36:33;100132.84;;;19.33;100.00
8585;BME280;7180;52.742;11.420;2023-07-29T08:38:58;100124.16;;;19.31;100.00
8585;BME280;7180;52.742;11.420;2023-07-29T08:44:32;100106.41;;;19.22;100.00
8585;BME280;7180;52.742;11.420;2023-07-29T08:47:00;100106.09;;;19.25;100.00
8585;BME280;7180;52.742;11.420;2023-07-29T08:49:26;100100.97;;;19.32;100.00
8585;BME280;7180;52.742;11.420;2023-07-29T09:12:37;100069.66;;;20.83;100.00
8585;BME280;7180;52.742;11.420;2023-07-29T09:21:54;100066.34;;;21.68;100.00
8585;BME280;7180;52.742;11.420;2023-07-29T09:24:20;62597.66;;;-142.35;100.00
8585;BME280;7180;52.742;11.420;2023-07-29T09:26:50;62597.66;;;-142.35;100.00
8585;BME280;7180;52.742;11.420;2023-07-29T09:29:16;62597.66;;;-142.35;100.00
8585;BME280;7180;52.742;11.420;2023-07-29T09:31:46;62597.66;;;-142.35;100.00
8585;BME280;7180;52.742;11.420;2023-07-29T09:34:15;62597.66;;;-142.35;100.00
8585;BME280;7180;52.742;11.420;2023-07-29T09:36:40;62597.66;;;-142.35;100.00
8585;BME280;7180;52.742;11.420;2023-07-29T09:39:11;62597.66;;;-142.35;100.00
8585;BME280;7180;52.742;11.420;2023-07-29T10:21:26;62597.66;;;-142.35;100.00
8585;BME280;7180;52.742;11.420;2023-07-29T10:23:53;62597.66;;;-142.35;100.00
8585;BME280;7180;52.742;11.420;2023-07-29T10:26:23;62597.66;;;-142.35;100.00
8585;BME280;7180;52.742;11.420;2023-07-29T10:28:52;62597.66;;;-142.35;100.00
8585;BME280;7180;52.742;11.420;2023-07-29T10:31:21;62597.66;;;-142.35;100.00
8585;BME280;7180;52.742;11.420;2023-07-29T10:33:48;62597.66;;;-142.35;100.00
8585;BME280;7180;52.742;11.420;2023-07-29T10:38:43;62597.66;;;-142.35;100.00
8585;BME280;7180;52.742;11.420;2023-07-29T10:41:09;62597.66;;;-142.35;100.00
8585;BME280;7180;52.742;11.420;2023-07-29T10:43:36;62597.66;;;-142.35;100.00
8585;BME280;7180;52.742;11.420;2023-07-29T10:46:24;62597.66;;;-142.35;100.00
8585;BME280;7180;52.742;11.420;2023-07-29T10:49:29;62597.66;;;-142.35;100.00
8585;BME280;7180;52.742;11.420;2023-07-29T10:51:56;62597.66;;;-142.35;100.00
8585;BME280;7180;52.742;11.420;2023-07-29T10:54:21;62597.66;;;-142.35;100.00
8585;BME280;7180;52.742;11.420;2023-07-29T10:56:48;62597.66;;;-142.35;100.00
8585;BME280;7180;52.742;11.420;2023-07-29T11:01:58;62597.66;;;-142.35;100.00
8585;BME280;7180;52.742;11.420;2023-07-29T11:04:28;62597.66;;;-142.35;100.00
8585;BME280;7180;52.742;11.420;2023-07-29T11:09:55;62597.66;;;-142.35;100.00
8585;BME280;7180;52.742;11.420;2023-07-29T11:12:56;62597.66;;;-142.35;100.00
8585;BME280;7180;52.742;11.420;2023-07-29T11:15:51;62597.66;;;-142.35;100.00
8585;BME280;7180;52.742;11.420;2023-07-29T11:18:20;62597.66;;;-142.35;100.00
8585;BME280;7180;52.742;11.420;2023-07-29T11:20:46;62597.66;;;-142.35;100.00
8585;BME280;7180;52.742;11.420;2023-07-29T11:23:13;62597.66;;;-142.35;100.00
8585;BME280;7180;52.742;11.420;2023-07-29T11:25:38;62597.66;;;-142.35;100.00
8585;BME280;7180;52.742;11.420;2023-07-29T11:28:04;62597.66;;;-142.35;100.00
8585;BME280;7180;52.742;11.420;2023-07-29T11:30:29;62597.66;;;-142.35;100.00
8585;BME280;7180;52.742;11.420;2023-07-29T11:32:57;62597.66;;;-142.35;100.00
8585;BME280;7180;52.742;11.420;2023-07-29T11:35:23;62597.66;;;-142.35;100.00
8585;BME280;7180;52.742;11.420;2023-07-29T11:37:50;62597.66;;;-142.35;100.00
8585;BME280;7180;52.742;11.420;2023-07-29T11:40:17;62597.66;;;-142.35;100.00
8585;BME280;7180;52.742;11.420;2023-07-29T11:42:43;62597.66;;;-142.35;100.00
8585;BME280;7180;52.742;11.420;2023-07-29T11:45:10;62597.66;;;-142.35;100.00
8585;BME280;7180;52.742;11.420;2023-07-29T11:47:43;62597.66;;;-142.35;100.00
8585;BME280;7180;52.742;11.420;2023-07-29T11:50:12;62597.66;;;-142.35;100.00
8585;BME280;7180;52.742;11.420;2023-07-29T11:52:45;62597.66;;;-142.35;100.00
8585;BME280;7180;52.742;11.420;2023-07-29T11:55:37;62597.66;;;-142.35;100.00
8585;BME280;7180;52.742;11.420;2023-07-29T11:58:10;62597.66;;;-142.35;100.00
8585;BME280;7180;52.742;11.420;2023-07-29T12:03:46;62597.66;;;-142.35;100.00
8585;BME280;7180;52.742;11.420;2023-07-29T12:21:41;62597.66;;;-142.35;100.00
8585;BME280;7180;52.742;11.420;2023-07-29T12:24:07;62597.66;;;-142.35;100.00
8585;BME280;7180;52.742;11.420;2023-07-29T12:26:32;62597.66;;;-142.35;100.00
8585;BME280;7180;52.742;11.420;2023-07-29T12:28:58;62597.66;;;-142.35;100.00
8585;BME280;7180;52.742;11.420;2023-07-29T12:31:32;62597.66;;;-142.35;100.00
8585;BME280;7180;52.742;11.420;2023-07-29T12:33:58;62597.66;;;-142.35;100.00
8585;BME280;7180;52.742;11.420;2023-07-29T12:36:39;62597.66;;;-142.35;100.00
8585;BME280;7180;52.742;11.420;2023-07-29T12:39:05;62597.66;;;-142.35;100.00
8585;BME280;7180;52.742;11.420;2023-07-29T12:41:30;62597.66;;;-142.35;100.00
8585;BME280;7180;52.742;11.420;2023-07-29T12:43:55;62597.66;;;-142.35;100.00
8585;BME280;7180;52.742;11.420;2023-07-29T12:46:21;62597.66;;;-142.35;100.00
8585;BME280;7180;52.742;11.420;2023-07-29T12:48:46;62597.66;;;-142.35;100.00
8585;BME280;7180;52.742;11.420;2023-07-29T12:51:11;62597.66;;;-142.35;100.00
8585;BME280;7180;52.742;11.420;2023-07-29T12:53:37;62597.66;;;-142.35;100.00
8585;BME280;7180;52.742;11.420;2023-07-29T12:56:02;62597.66;;;-142.35;100.00
8585;BME280;7180;52.742;11.420;2023-07-29T12:58:35;62597.66;;;-142.35;100.00
8585;BME280;7180;52.742;11.420;2023-07-29T13:01:01;62597.66;;;-142.35;100.00
8585;BME280;7180;52.742;11.420;2023-07-29T13:03:49;62597.66;;;-142.35;100.00
8585;BME280;7180;52.742;11.420;2023-07-29T13:06:15;62597.66;;;-142.35;100.00
8585;BME280;7180;52.742;11.420;2023-07-29T13:08:44;62597.66;;;-142.35;100.00
8585;BME280;7180;52.742;11.420;2023-07-29T13:11:09;62597.66;;;-142.35;100.00
8585;BME280;7180;52.742;11.420;2023-07-29T13:13:35;62597.66;;;-142.35;100.00
8585;BME280;7180;52.742;11.420;2023-07-29T13:16:00;62597.66;;;-142.35;100.00
8585;BME280;7180;52.742;11.420;2023-07-29T13:18:26;62597.66;;;-142.35;100.00
8585;BME280;7180;52.742;11.420;2023-07-29T13:20:51;62597.66;;;-142.35;100.00
8585;BME280;7180;52.742;11.420;2023-07-29T13:23:17;62597.66;;;-142.35;100.00
8585;BME280;7180;52.742;11.420;2023-07-29T13:25:42;62597.66;;;-142.35;100.00
8585;BME280;7180;52.742;11.420;2023-07-29T13:28:11;62597.66;;;-142.35;100.00
8585;BME280;7180;52.742;11.420;2023-07-29T13:30:38;62597.66;;;-142.35;100.00
8585;BME280;7180;52.742;11.420;2023-07-29T13:33:04;62597.66;;;-142.35;100.00
8585;BME280;7180;52.742;11.420;2023-07-29T13:35:30;62597.66;;;-142.35;100.00
8585;BME280;7180;52.742;11.420;2023-07-29T13:37:56;62597.66;;;-142.35;100.00
8585;BME280;7180;52.742;11.420;2023-07-29T13:40:21;62597.66;;;-142.35;100.00
8585;BME280;7180;52.742;11.420;2023-07-29T13:42:46;62597.66;;;-142.35;100.00
8585;BME280;7180;52.742;11.420;2023-07-29T13:45:12;62597.66;;;-142.35;100.00
8585;BME280;7180;52.742;11.420;2023-07-29T13:47:37;62597.66;;;-142.35;100.00
8585;BME280;7180;52.742;11.420;2023-07-29T13:50:03;62597.66;;;-142.35;100.00
8585;BME280;7180;52.742;11.420;2023-07-29T13:52:29;62597.66;;;-142.35;100.00
8585;BME280;7180;52.742;11.420;2023-07-29T14:44:47;62597.66;;;-142.35;100.00
8585;BME280;7180;52.742;11.420;2023-07-29T14:47:12;62597.66;;;-142.35;100.00
8585;BME280;7180;52.742;11.420;2023-07-29T14:53:13;62597.66;;;-142.35;100.00
8585;BME280;7180;52.742;11.420;2023-07-29T14:55:38;62597.66;;;-142.35;100.00
8585;BME280;7180;52.742;11.420;2023-07-29T14:58:03;62597.66;;;-142.35;100.00
8585;BME280;7180;52.742;11.420;2023-07-29T15:00:34;62597.66;;;-142.35;100.00
8585;BME280;7180;52.742;11.420;2023-07-29T15:03:00;62597.66;;;-142.35;100.00
8585;BME280;7180;52.742;11.420;2023-07-29T15:15:58;62597.66;;;-142.35;100.00
8585;BME280;7180;52.742;11.420;2023-07-29T15:18:26;62597.66;;;-142.35;100.00
8585;BME280;7180;52.742;11.420;2023-07-29T15:34:39;62597.66;;;-142.35;100.00
8585;BME280;7180;52.742;11.420;2023-07-29T15:37:06;62597.66;;;-142.35;100.00
8585;BME280;7180;52.742;11.420;2023-07-29T15:39:32;62597.66;;;-142.35;100.00
8585;BME280;7180;52.742;11.420;2023-07-29T15:42:04;62597.66;;;-142.35;100.00
8585;BME280;7180;52.742;11.420;2023-07-29T15:44:29;62597.66;;;-142.35;100.00
8585;BME280;7180;52.742;11.420;2023-07-29T15:46:55;62597.66;;;-142.35;100.00
8585;BME280;7180;52.742;11.420;2023-07-29T15:49:23;62597.66;;;-142.35;100.00
8585;BME280;7180;52.742;11.420;2023-07-29T15:51:49;62597.66;;;-142.35;100.00
8585;BME280;7180;52.742;11.420;2023-07-29T15:54:14;62597.66;;;-142.35;100.00
8585;BME280;7180;52.742;11.420;2023-07-29T15:56:40;62597.66;;;-142.35;100.00
8585;BME280;7180;52.742;11.420;2023-07-29T15:59:06;62597.66;;;-142.35;100.00
8585;BME280;7180;52.742;11.420;2023-07-29T16:01:32;62597.66;;;-142.35;100.00
8585;BME280;7180;52.742;11.420;2023-07-29T16:03:57;62597.66;;;-142.35;100.00
8585;BME280;7180;52.742;11.420;2023-07-29T16:06:25;62597.66;;;-142.35;100.00
8585;BME280;7180;52.742;11.420;2023-07-29T16:08:50;62597.66;;;-142.35;100.00
8585;BME280;7180;52.742;11.420;2023-07-29T16:11:16;62597.66;;;-142.35;100.00
8585;BME280;7180;52.742;11.420;2023-07-29T16:13:41;62597.66;;;-142.35;100.00
8585;BME280;7180;52.742;11.420;2023-07-29T16:16:06;62597.66;;;-142.35;100.00
8585;BME280;7180;52.742;11.420;2023-07-29T16:18:32;62597.66;;;-142.35;100.00
8585;BME280;7180;52.742;11.420;2023-07-29T16:20:57;62597.66;;;-142.35;100.00
8585;BME280;7180;52.742;11.420;2023-07-29T16:23:27;62597.66;;;-142.35;100.00
8585;BME280;7180;52.742;11.420;2023-07-29T16:26:10;62597.66;;;-142.35;100.00
8585;BME280;7180;52.742;11.420;2023-07-29T16:28:46;62597.66;;;-142.35;100.00
8585;BME280;7180;52.742;11.420;2023-07-29T16:31:30;62597.66;;;-142.35;100.00
8585;BME280;7180;52.742;11.420;2023-07-29T16:33:55;62597.66;;;-142.35;100.00
8585;BME280;7180;52.742;11.420;2023-07-29T16:36:21;62597.66;;;-142.35;100.00
8585;BME280;7180;52.742;11.420;2023-07-29T16:38:46;62597.66;;;-142.35;100.00
8585;BME280;7180;52.742;11.420;2023-07-29T16:41:11;62597.66;;;-142.35;100.00
8585;BME280;7180;52.742;11.420;2023-07-29T16:43:37;62597.66;;;-142.35;100.00
8585;BME280;7180;52.742;11.420;2023-07-29T16:46:02;62597.66;;;-142.35;100.00
8585;BME280;7180;52.742;11.420;2023-07-29T16:48:27;62597.66;;;-142.35;100.00
8585;BME280;7180;52.742;11.420;2023-07-29T16:50:53;62597.66;;;-142.35;100.00
8585;BME280;7180;52.742;11.420;2023-07-29T16:53:19;62597.66;;;-142.35;100.00
8585;BME280;7180;52.742;11.420;2023-07-29T16:55:45;62597.66;;;-142.35;100.00
8585;BME280;7180;52.742;11.420;2023-07-29T16:58:11;62597.66;;;-142.35;100.00
8585;BME280;7180;52.742;11.420;2023-07-29T17:00:37;62597.66;;;-142.35;100.00
8585;BME280;7180;52.742;11.420;2023-07-29T17:03:02;62597.66;;;-142.35;100.00
8585;BME280;7180;52.742;11.420;2023-07-29T17:05:28;62597.66;;;-142.35;100.00
8585;BME280;7180;52.742;11.420;2023-07-29T17:14:38;62597.66;;;-142.35;100.00
8585;BME280;7180;52.742;11.420;2023-07-29T17:17:11;62597.66;;;-142.35;100.00
8585;BME280;7180;52.742;11.420;2023-07-29T17:19:36;62597.66;;;-142.35;100.00
8585;BME280;7180;52.742;11.420;2023-07-29T17:22:01;62597.66;;;-142.35;100.00
8585;BME280;7180;52.742;11.420;2023-07-29T17:24:27;62597.66;;;-142.35;100.00
8585;BME280;7180;52.742;11.420;2023-07-29T17:27:15;62597.66;;;-142.35;100.00
8585;BME280;7180;52.742;11.420;2023-07-29T17:30:26;62597.66;;;-142.35;100.00
8585;BME280;7180;52.742;11.420;2023-07-29T17:32:53;62597.66;;;-142.35;100.00
8585;BME280;7180;52.742;11.420;2023-07-29T17:35:18;62597.66;;;-142.35;100.00
8585;BME280;7180;52.742;11.420;2023-07-29T17:37:44;62597.66;;;-142.35;100.00
8585;BME280;7180;52.742;11.420;2023-07-29T17:40:10;62597.66;;;-142.35;100.00
8585;BME280;7180;52.742;11.420;2023-07-29T17:42:36;62597.66;;;-142.35;100.00
8585;BME280;7180;52.742;11.420;2023-07-29T17:45:02;62597.66;;;-142.35;100.00
8585;BME280;7180;52.742;11.420;2023-07-29T17:47:31;62597.66;;;-142.35;100.00
8585;BME280;7180;52.742;11.420;2023-07-29T17:53:13;62597.66;;;-142.35;100.00
8585;BME280;7180;52.742;11.420;2023-07-29T17:55:39;62597.66;;;-142.35;100.00
8585;BME280;7180;52.742;11.420;2023-07-29T17:58:07;62597.66;;;-142.35;100.00
8585;BME280;7180;52.742;11.420;2023-07-29T18:00:33;62597.66;;;-142.35;100.00
8585;BME280;7180;52.742;11.420;2023-07-29T18:03:01;62597.66;;;-142.35;100.00
8585;BME280;7180;52.742;11.420;2023-07-29T18:05:27;62597.66;;;-142.35;100.00
8585;BME280;7180;52.742;11.420;2023-07-29T18:07:52;62597.66;;;-142.35;100.00
8585;BME280;7180;52.742;11.420;2023-07-29T18:10:18;62597.66;;;-142.35;100.00
8585;BME280;7180;52.742;11.420;2023-07-29T18:12:43;62597.66;;;-142.35;100.00
8585;BME280;7180;52.742;11.420;2023-07-29T18:15:09;62597.66;;;-142.35;100.00
8585;BME280;7180;52.742;11.420;2023-07-29T18:17:34;62597.66;;;-142.35;100.00
8585;BME280;7180;52.742;11.420;2023-07-29T18:20:00;62597.66;;;-142.35;100.00
8585;BME280;7180;52.742;11.420;2023-07-29T18:22:26;62597.66;;;-142.35;100.00
8585;BME280;7180;52.742;11.420;2023-07-29T18:24:52;62597.66;;;-142.35;100.00
8585;BME280;7180;52.742;11.420;2023-07-29T18:27:17;62597.66;;;-142.35;100.00
8585;BME280;7180;52.742;11.420;2023-07-29T18:29:42;62597.66;;;-142.35;100.00
8585;BME280;7180;52.742;11.420;2023-07-29T18:32:08;62597.66;;;-142.35;100.00
8585;BME280;7180;52.742;11.420;2023-07-29T18:34:33;62597.66;;;-142.35;100.00
8585;BME280;7180;52.742;11.420;2023-07-29T18:36:59;62597.66;;;-142.35;100.00
8585;BME280;7180;52.742;11.420;2023-07-29T18:39:24;62597.66;;;-142.35;100.00
8585;BME280;7180;52.742;11.420;2023-07-29T18:41:49;62597.66;;;-142.35;100.00
8585;BME280;7180;52.742;11.420;2023-07-29T18:44:15;62597.66;;;-142.35;100.00
8585;BME280;7180;52.742;11.420;2023-07-29T18:46:40;62597.66;;;-142.35;100.00
8585;BME280;7180;52.742;11.420;2023-07-29T18:49:05;62597.66;;;-142.35;100.00
8585;BME280;7180;52.742;11.420;2023-07-29T18:51:35;62597.66;;;-142.35;100.00
8585;BME280;7180;52.742;11.420;2023-07-29T18:54:02;62597.66;;;-142.35;100.00
8585;BME280;7180;52.742;11.420;2023-07-29T18:56:28;62597.66;;;-142.35;100.00
8585;BME280;7180;52.742;11.420;2023-07-29T18:58:53;62597.66;;;-142.35;100.00
8585;BME280;7180;52.742;11.420;2023-07-29T19:01:19;62597.66;;;-142.35;100.00
8585;BME280;7180;52.742;11.420;2023-07-29T19:03:47;62597.66;;;-142.35;100.00
8585;BME280;7180;52.742;11.420;2023-07-29T19:06:12;62597.66;;;-142.35;100.00
8585;BME280;7180;52.742;11.420;2023-07-29T19:08:37;62597.66;;;-142.35;100.00
8585;BME280;7180;52.742;11.420;2023-07-29T19:11:03;62597.66;;;-142.35;100.00
8585;BME280;7180;52.742;11.420;2023-07-29T19:13:28;62597.66;;;-142.35;100.00
8585;BME280;7180;52.742;11.420;2023-07-29T19:15:53;62597.66;;;-142.35;100.00
8585;BME280;7180;52.742;11.420;2023-07-29T19:18:22;62597.66;;;-142.35;100.00
8585;BME280;7180;52.742;11.420;2023-07-29T19:20:52;62597.66;;;-142.35;100.00
8585;BME280;7180;52.742;11.420;2023-07-29T19:23:21;62597.66;;;-142.35;100.00
8585;BME280;7180;52.742;11.420;2023-07-29T19:25:47;62597.66;;;-142.35;100.00
8585;BME280;7180;52.742;11.420;2023-07-29T19:28:13;62597.66;;;-142.35;100.00
8585;BME280;7180;52.742;11.420;2023-07-29T19:30:38;62597.66;;;-142.35;100.00
8585;BME280;7180;52.742;11.420;2023-07-29T19:33:04;62597.66;;;-142.35;100.00
8585;BME280;7180;52.742;11.420;2023-07-29T19:35:29;62597.66;;;-142.35;100.00
8585;BME280;7180;52.742;11.420;2023-07-29T19:37:54;62597.66;;;-142.35;100.00
8585;BME280;7180;52.742;11.420;2023-07-29T19:40:20;62597.66;;;-142.35;100.00
8585;BME280;7180;52.742;11.420;2023-07-29T19:45:35;62597.66;;;-142.35;100.00
8585;BME280;7180;52.742;11.420;2023-07-29T19:48:01;62597.66;;;-142.35;100.00
8585;BME280;7180;52.742;11.420;2023-07-29T19:50:29;62597.66;;;-142.35;100.00
8585;BME280;7180;52.742;11.420;2023-07-29T19:52:55;62597.66;;;-142.35;100.00
8585;BME280;7180;52.742;11.420;2023-07-29T19:55:20;62597.66;;;-142.35;100.00
8585;BME280;7180;52.742;11.420;2023-07-29T19:57:45;62597.66;;;-142.35;100.00
8585;BME280;7180;52.742;11.420;2023-07-29T20:00:11;62597.66;;;-142.35;100.00
8585;BME280;7180;52.742;11.420;2023-07-29T20:02:36;62597.66;;;-142.35;100.00
8585;BME280;7180;52.742;11.420;2023-07-29T20:05:02;62597.66;;;-142.35;100.00
8585;BME280;7180;52.742;11.420;2023-07-29T20:07:27;62597.66;;;-142.35;100.00
8585;BME280;7180;52.742;11.420;2023-07-29T20:09:53;62597.66;;;-142.35;100.00
8585;BME280;7180;52.742;11.420;2023-07-29T20:12:18;62597.66;;;-142.35;100.00
8585;BME280;7180;52.742;11.420;2023-07-29T20:14:43;62597.66;;;-142.35;100.00
8585;BME280;7180;52.742;11.420;2023-07-29T20:17:08;62597.66;;;-142.35;100.00
8585;BME280;7180;52.742;11.420;2023-07-29T20:19:34;62597.66;;;-142.35;100.00
8585;BME280;7180;52.742;11.420;2023-07-29T20:22:00;62597.66;;;-142.35;100.00
8585;BME280;7180;52.742;11.420;2023-07-29T20:24:25;62597.66;;;-142.35;100.00
8585;BME280;7180;52.742;11.420;2023-07-29T20:26:50;62597.66;;;-142.35;100.00
8585;BME280;7180;52.742;11.420;2023-07-29T20:29:16;62597.66;;;-142.35;100.00
8585;BME280;7180;52.742;11.420;2023-07-29T20:31:41;62597.66;;;-142.35;100.00
8585;BME280;7180;52.742;11.420;2023-07-29T20:34:06;62597.66;;;-142.35;100.00
8585;BME280;7180;52.742;11.420;2023-07-29T20:36:32;62597.66;;;-142.35;100.00
8585;BME280;7180;52.742;11.420;2023-07-29T20:38:57;62597.66;;;-142.35;100.00
8585;BME280;7180;52.742;11.420;2023-07-29T20:41:23;62597.66;;;-142.35;100.00
8585;BME280;7180;52.742;11.420;2023-07-29T20:43:52;62597.66;;;-142.35;100.00
8585;BME280;7180;52.742;11.420;2023-07-29T20:50:21;62597.66;;;-142.35;100.00
8585;BME280;7180;52.742;11.420;2023-07-29T20:52:48;62597.66;;;-142.35;100.00
8585;BME280;7180;52.742;11.420;2023-07-29T21:15:27;62597.66;;;-142.35;100.00
8585;BME280;7180;52.742;11.420;2023-07-29T21:21:49;62597.66;;;-142.35;100.00
8585;BME280;7180;52.742;11.420;2023-07-29T21:26:46;62597.66;;;-142.35;100.00
8585;BME280;7180;52.742;11.420;2023-07-29T21:29:11;62597.66;;;-142.35;100.00
8585;BME280;7180;52.742;11.420;2023-07-29T21:31:37;62597.66;;;-142.35;100.00